sensor_id;sensor_type;location;lat;lon;timestamp;P1;durP1;ratioP1;P2;durP2;ratioP2
61085;SDS011;46967;48.876;2.136;2022-08-23T00:01:48;1.08;;;0.50;;
61085;SDS011;46967;48.876;2.136;2022-08-23T00:04:16;2.40;;;0.40;;
61085;SDS011;46967;48.876;2.136;2022-08-23T00:06:46;1.10;;;0.40;;
61085;SDS011;46967;48.876;2.136;2022-08-23T00:09:13;0.65;;;0.40;;
61085;SDS011;46967;48.876;2.136;2022-08-23T00:11:41;0.55;;;0.43;;
61085;SDS011;46967;48.876;2.136;2022-08-23T00:14:28;1.13;;;0.40;;
61085;SDS011;46967;48.876;2.136;2022-08-23T00:16:56;0.45;;;0.38;;
61085;SDS011;46967;48.876;2.136;2022-08-23T00:19:22;2.05;;;0.40;;
61085;SDS011;46967;48.876;2.136;2022-08-23T00:21:48;2.58;;;0.40;;
61085;SDS011;46967;48.876;2.136;2022-08-23T00:24:15;0.85;;;0.40;;
61085;SDS011;46967;48.876;2.136;2022-08-23T00:29:13;0.70;;;0.40;;
61085;SDS011;46967;48.876;2.136;2022-08-23T00:31:39;0.65;;;0.63;;
61085;SDS011;46967;48.876;2.136;2022-08-23T00:34:04;0.68;;;0.55;;
61085;SDS011;46967;48.876;2.136;2022-08-23T00:36:29;1.30;;;0.50;;
61085;SDS011;46967;48.876;2.136;2022-08-23T00:38:55;3.28;;;0.50;;
61085;SDS011;46967;48.876;2.136;2022-08-23T00:41:20;0.40;;;0.30;;
61085;SDS011;46967;48.876;2.136;2022-08-23T00:43:45;1.35;;;0.50;;
61085;SDS011;46967;48.876;2.136;2022-08-23T00:46:39;0.63;;;0.40;;
61085;SDS011;46967;48.876;2.136;2022-08-23T00:49:49;1.33;;;0.50;;
61085;SDS011;46967;48.876;2.136;2022-08-23T00:52:39;1.10;;;0.47;;
61085;SDS011;46967;48.876;2.136;2022-08-23T00:55:11;0.50;;;0.40;;
61085;SDS011;46967;48.876;2.136;2022-08-23T00:57:36;0.90;;;0.45;;
61085;SDS011;46967;48.876;2.136;2022-08-23T01:00:05;1.42;;;0.50;;
61085;SDS011;46967;48.876;2.136;2022-08-23T01:02:31;0.57;;;0.55;;
61085;SDS011;46967;48.876;2.136;2022-08-23T01:04:57;2.53;;;0.70;;
61085;SDS011;46967;48.876;2.136;2022-08-23T01:07:45;1.42;;;0.50;;
61085;SDS011;46967;48.876;2.136;2022-08-23T01:13:02;0.47;;;0.40;;
61085;SDS011;46967;48.876;2.136;2022-08-23T01:15:38;0.70;;;0.40;;
61085;SDS011;46967;48.876;2.136;2022-08-23T01:18:08;1.70;;;0.60;;
61085;SDS011;46967;48.876;2.136;2022-08-23T01:20:38;1.30;;;0.57;;
61085;SDS011;46967;48.876;2.136;2022-08-23T01:24:12;2.10;;;0.70;;
61085;SDS011;46967;48.876;2.136;2022-08-23T01:26:07;1.10;;;0.45;;
61085;SDS011;46967;48.876;2.136;2022-08-23T01:28:33;1.27;;;0.50;;
61085;SDS011;46967;48.876;2.136;2022-08-23T01:30:59;0.52;;;0.35;;
61085;SDS011;46967;48.876;2.136;2022-08-23T01:33:25;3.15;;;0.50;;
61085;SDS011;46967;48.876;2.136;2022-08-23T01:35:52;0.47;;;0.40;;
61085;SDS011;46967;48.876;2.136;2022-08-23T01:38:19;0.50;;;0.45;;
61085;SDS011;46967;48.876;2.136;2022-08-23T01:40:45;1.40;;;0.52;;
61085;SDS011;46967;48.876;2.136;2022-08-23T01:43:11;1.25;;;0.50;;
61085;SDS011;46967;48.876;2.136;2022-08-23T01:45:37;1.63;;;0.60;;
61085;SDS011;46967;48.876;2.136;2022-08-23T01:48:03;0.45;;;0.40;;
61085;SDS011;46967;48.876;2.136;2022-08-23T01:50:29;1.02;;;0.60;;
61085;SDS011;46967;48.876;2.136;2022-08-23T01:52:55;4.40;;;0.68;;
61085;SDS011;46967;48.876;2.136;2022-08-23T01:55:20;0.50;;;0.40;;
61085;SDS011;46967;48.876;2.136;2022-08-23T01:57:48;0.65;;;0.50;;
61085;SDS011;46967;48.876;2.136;2022-08-23T02:00:17;1.67;;;0.50;;
61085;SDS011;46967;48.876;2.136;2022-08-23T02:02:44;0.73;;;0.40;;
61085;SDS011;46967;48.876;2.136;2022-08-23T02:05:10;0.77;;;0.50;;
61085;SDS011;46967;48.876;2.136;2022-08-23T02:07:36;0.43;;;0.40;;
61085;SDS011;46967;48.876;2.136;2022-08-23T02:10:01;0.60;;;0.45;;
61085;SDS011;46967;48.876;2.136;2022-08-23T02:12:27;1.42;;;0.50;;
61085;SDS011;46967;48.876;2.136;2022-08-23T02:14:53;0.28;;;0.28;;
61085;SDS011;46967;48.876;2.136;2022-08-23T02:17:18;1.48;;;0.50;;
61085;SDS011;46967;48.876;2.136;2022-08-23T02:19:44;1.40;;;0.50;;
61085;SDS011;46967;48.876;2.136;2022-08-23T02:22:10;0.40;;;0.40;;
61085;SDS011;46967;48.876;2.136;2022-08-23T02:24:40;1.48;;;0.60;;
61085;SDS011;46967;48.876;2.136;2022-08-23T02:27:07;0.98;;;0.50;;
61085;SDS011;46967;48.876;2.136;2022-08-23T02:29:33;2.35;;;0.70;;
61085;SDS011;46967;48.876;2.136;2022-08-23T02:31:59;0.40;;;0.40;;
61085;SDS011;46967;48.876;2.136;2022-08-23T02:34:26;3.70;;;0.50;;
61085;SDS011;46967;48.876;2.136;2022-08-23T02:36:52;0.65;;;0.55;;
61085;SDS011;46967;48.876;2.136;2022-08-23T02:39:18;0.50;;;0.40;;
61085;SDS011;46967;48.876;2.136;2022-08-23T02:41:44;1.23;;;0.45;;
61085;SDS011;46967;48.876;2.136;2022-08-23T02:44:09;0.85;;;0.60;;
61085;SDS011;46967;48.876;2.136;2022-08-23T02:46:35;0.77;;;0.40;;
61085;SDS011;46967;48.876;2.136;2022-08-23T02:49:01;3.90;;;0.65;;
61085;SDS011;46967;48.876;2.136;2022-08-23T02:51:27;0.65;;;0.60;;
61085;SDS011;46967;48.876;2.136;2022-08-23T02:53:52;0.63;;;0.60;;
61085;SDS011;46967;48.876;2.136;2022-08-23T02:56:18;1.15;;;0.50;;
61085;SDS011;46967;48.876;2.136;2022-08-23T02:58:43;1.13;;;0.50;;
61085;SDS011;46967;48.876;2.136;2022-08-23T03:01:19;3.00;;;0.57;;
61085;SDS011;46967;48.876;2.136;2022-08-23T03:03:46;1.63;;;0.50;;
61085;SDS011;46967;48.876;2.136;2022-08-23T03:06:12;1.10;;;0.50;;
61085;SDS011;46967;48.876;2.136;2022-08-23T03:08:38;1.05;;;0.40;;
61085;SDS011;46967;48.876;2.136;2022-08-23T03:11:09;0.90;;;0.38;;
61085;SDS011;46967;48.876;2.136;2022-08-23T03:13:39;0.65;;;0.50;;
61085;SDS011;46967;48.876;2.136;2022-08-23T03:16:06;1.70;;;0.60;;
61085;SDS011;46967;48.876;2.136;2022-08-23T03:18:32;3.78;;;0.60;;
61085;SDS011;46967;48.876;2.136;2022-08-23T03:20:58;1.02;;;0.40;;
61085;SDS011;46967;48.876;2.136;2022-08-23T03:23:23;1.73;;;0.55;;
61085;SDS011;46967;48.876;2.136;2022-08-23T03:25:49;1.00;;;0.60;;
61085;SDS011;46967;48.876;2.136;2022-08-23T03:28:14;2.10;;;0.60;;
61085;SDS011;46967;48.876;2.136;2022-08-23T03:30:40;0.65;;;0.50;;
61085;SDS011;46967;48.876;2.136;2022-08-23T03:33:07;0.80;;;0.60;;
61085;SDS011;46967;48.876;2.136;2022-08-23T03:35:32;1.70;;;0.60;;
61085;SDS011;46967;48.876;2.136;2022-08-23T03:37:58;1.73;;;0.70;;
61085;SDS011;46967;48.876;2.136;2022-08-23T03:40:24;2.50;;;0.90;;
61085;SDS011;46967;48.876;2.136;2022-08-23T03:42:49;1.40;;;0.47;;
61085;SDS011;46967;48.876;2.136;2022-08-23T03:45:16;2.25;;;0.73;;
61085;SDS011;46967;48.876;2.136;2022-08-23T03:47:42;0.98;;;0.52;;
61085;SDS011;46967;48.876;2.136;2022-08-23T03:50:08;0.50;;;0.50;;
61085;SDS011;46967;48.876;2.136;2022-08-23T03:52:33;0.70;;;0.45;;
61085;SDS011;46967;48.876;2.136;2022-08-23T03:54:59;2.15;;;0.52;;
61085;SDS011;46967;48.876;2.136;2022-08-23T03:57:24;4.68;;;0.65;;
61085;SDS011;46967;48.876;2.136;2022-08-23T03:59:49;0.98;;;0.70;;
61085;SDS011;46967;48.876;2.136;2022-08-23T04:02:15;0.93;;;0.50;;
61085;SDS011;46967;48.876;2.136;2022-08-23T04:04:40;0.40;;;0.38;;
61085;SDS011;46967;48.876;2.136;2022-08-23T04:07:06;3.15;;;0.60;;
61085;SDS011;46967;48.876;2.136;2022-08-23T04:09:32;0.95;;;0.50;;
61085;SDS011;46967;48.876;2.136;2022-08-23T04:11:57;3.30;;;0.60;;
61085;SDS011;46967;48.876;2.136;2022-08-23T04:14:22;1.15;;;0.63;;
61085;SDS011;46967;48.876;2.136;2022-08-23T04:16:48;1.52;;;0.55;;
61085;SDS011;46967;48.876;2.136;2022-08-23T04:19:14;3.58;;;0.65;;
61085;SDS011;46967;48.876;2.136;2022-08-23T04:21:41;1.02;;;0.60;;
61085;SDS011;46967;48.876;2.136;2022-08-23T04:24:09;0.98;;;0.73;;
61085;SDS011;46967;48.876;2.136;2022-08-23T04:26:35;1.13;;;0.60;;
61085;SDS011;46967;48.876;2.136;2022-08-23T04:29:00;1.08;;;0.70;;
61085;SDS011;46967;48.876;2.136;2022-08-23T04:31:26;1.15;;;0.60;;
61085;SDS011;46967;48.876;2.136;2022-08-23T04:33:52;0.63;;;0.57;;
61085;SDS011;46967;48.876;2.136;2022-08-23T04:36:19;1.08;;;0.50;;
61085;SDS011;46967;48.876;2.136;2022-08-23T04:38:45;1.00;;;0.70;;
61085;SDS011;46967;48.876;2.136;2022-08-23T04:41:10;2.83;;;0.68;;
61085;SDS011;46967;48.876;2.136;2022-08-23T04:43:54;1.33;;;0.55;;
61085;SDS011;46967;48.876;2.136;2022-08-23T04:46:20;4.72;;;0.80;;
61085;SDS011;46967;48.876;2.136;2022-08-23T04:48:47;1.55;;;0.80;;
61085;SDS011;46967;48.876;2.136;2022-08-23T04:51:13;2.95;;;0.90;;
61085;SDS011;46967;48.876;2.136;2022-08-23T04:53:40;0.93;;;0.63;;
61085;SDS011;46967;48.876;2.136;2022-08-23T04:56:06;1.20;;;0.70;;
61085;SDS011;46967;48.876;2.136;2022-08-23T04:58:32;1.35;;;0.80;;
61085;SDS011;46967;48.876;2.136;2022-08-23T05:00:59;1.25;;;0.70;;
61085;SDS011;46967;48.876;2.136;2022-08-23T05:03:26;3.42;;;0.70;;
61085;SDS011;46967;48.876;2.136;2022-08-23T05:05:53;2.78;;;0.73;;
61085;SDS011;46967;48.876;2.136;2022-08-23T05:08:19;3.95;;;0.75;;
61085;SDS011;46967;48.876;2.136;2022-08-23T05:10:44;1.00;;;0.63;;
61085;SDS011;46967;48.876;2.136;2022-08-23T05:13:11;0.95;;;0.60;;
61085;SDS011;46967;48.876;2.136;2022-08-23T05:15:36;2.47;;;0.80;;
61085;SDS011;46967;48.876;2.136;2022-08-23T05:18:02;2.22;;;0.98;;
61085;SDS011;46967;48.876;2.136;2022-08-23T05:20:27;1.40;;;0.80;;
61085;SDS011;46967;48.876;2.136;2022-08-23T05:22:53;0.70;;;0.70;;
61085;SDS011;46967;48.876;2.136;2022-08-23T05:25:18;1.58;;;0.80;;
61085;SDS011;46967;48.876;2.136;2022-08-23T05:27:44;1.45;;;0.73;;
61085;SDS011;46967;48.876;2.136;2022-08-23T05:30:10;2.05;;;0.90;;
61085;SDS011;46967;48.876;2.136;2022-08-23T05:32:36;2.50;;;0.90;;
61085;SDS011;46967;48.876;2.136;2022-08-23T05:35:02;2.67;;;0.75;;
61085;SDS011;46967;48.876;2.136;2022-08-23T05:37:28;2.80;;;1.17;;
61085;SDS011;46967;48.876;2.136;2022-08-23T05:39:53;2.30;;;0.90;;
61085;SDS011;46967;48.876;2.136;2022-08-23T05:42:19;1.67;;;0.95;;
61085;SDS011;46967;48.876;2.136;2022-08-23T05:44:44;1.20;;;0.90;;
61085;SDS011;46967;48.876;2.136;2022-08-23T05:47:10;2.47;;;0.73;;
61085;SDS011;46967;48.876;2.136;2022-08-23T05:49:38;4.05;;;1.05;;
61085;SDS011;46967;48.876;2.136;2022-08-23T05:52:04;1.48;;;0.70;;
61085;SDS011;46967;48.876;2.136;2022-08-23T05:54:32;2.25;;;0.80;;
61085;SDS011;46967;48.876;2.136;2022-08-23T05:56:58;3.55;;;0.70;;
61085;SDS011;46967;48.876;2.136;2022-08-23T05:59:23;1.38;;;0.90;;
61085;SDS011;46967;48.876;2.136;2022-08-23T06:01:49;1.85;;;0.70;;
61085;SDS011;46967;48.876;2.136;2022-08-23T06:04:15;2.17;;;0.82;;
61085;SDS011;46967;48.876;2.136;2022-08-23T06:06:40;1.60;;;0.88;;
61085;SDS011;46967;48.876;2.136;2022-08-23T06:09:14;3.53;;;1.00;;
61085;SDS011;46967;48.876;2.136;2022-08-23T06:11:42;4.15;;;1.08;;
61085;SDS011;46967;48.876;2.136;2022-08-23T06:14:09;4.80;;;0.95;;
61085;SDS011;46967;48.876;2.136;2022-08-23T06:16:36;1.33;;;0.73;;
61085;SDS011;46967;48.876;2.136;2022-08-23T06:19:06;2.95;;;0.80;;
61085;SDS011;46967;48.876;2.136;2022-08-23T06:21:33;1.85;;;0.80;;
61085;SDS011;46967;48.876;2.136;2022-08-23T06:23:59;3.63;;;1.10;;
61085;SDS011;46967;48.876;2.136;2022-08-23T06:26:27;1.67;;;0.82;;
61085;SDS011;46967;48.876;2.136;2022-08-23T06:28:56;2.03;;;0.80;;
61085;SDS011;46967;48.876;2.136;2022-08-23T06:31:23;3.78;;;1.20;;
61085;SDS011;46967;48.876;2.136;2022-08-23T06:34:08;5.15;;;1.00;;
61085;SDS011;46967;48.876;2.136;2022-08-23T06:36:37;2.55;;;0.70;;
61085;SDS011;46967;48.876;2.136;2022-08-23T06:39:03;1.25;;;0.70;;
61085;SDS011;46967;48.876;2.136;2022-08-23T06:41:29;2.55;;;0.77;;
61085;SDS011;46967;48.876;2.136;2022-08-23T06:43:54;2.08;;;0.88;;
61085;SDS011;46967;48.876;2.136;2022-08-23T06:46:21;1.40;;;0.75;;
61085;SDS011;46967;48.876;2.136;2022-08-23T06:48:48;1.67;;;0.90;;
61085;SDS011;46967;48.876;2.136;2022-08-23T06:56:09;1.50;;;0.60;;
61085;SDS011;46967;48.876;2.136;2022-08-23T06:58:35;2.15;;;0.77;;
61085;SDS011;46967;48.876;2.136;2022-08-23T07:01:07;5.97;;;1.08;;
61085;SDS011;46967;48.876;2.136;2022-08-23T07:03:34;2.92;;;0.85;;
61085;SDS011;46967;48.876;2.136;2022-08-23T07:06:00;1.90;;;1.00;;
61085;SDS011;46967;48.876;2.136;2022-08-23T07:08:25;2.58;;;0.88;;
61085;SDS011;46967;48.876;2.136;2022-08-23T07:10:53;3.40;;;0.93;;
61085;SDS011;46967;48.876;2.136;2022-08-23T07:13:20;2.00;;;0.90;;
61085;SDS011;46967;48.876;2.136;2022-08-23T07:15:45;4.30;;;1.00;;
61085;SDS011;46967;48.876;2.136;2022-08-23T07:18:10;3.47;;;1.25;;
61085;SDS011;46967;48.876;2.136;2022-08-23T07:20:37;1.40;;;0.73;;
61085;SDS011;46967;48.876;2.136;2022-08-23T07:23:02;1.00;;;0.80;;
61085;SDS011;46967;48.876;2.136;2022-08-23T07:25:28;3.08;;;0.90;;
61085;SDS011;46967;48.876;2.136;2022-08-23T07:27:53;0.95;;;0.60;;
61085;SDS011;46967;48.876;2.136;2022-08-23T07:30:19;2.75;;;0.90;;
61085;SDS011;46967;48.876;2.136;2022-08-23T07:32:44;0.85;;;0.65;;
61085;SDS011;46967;48.876;2.136;2022-08-23T07:35:10;3.50;;;0.70;;
61085;SDS011;46967;48.876;2.136;2022-08-23T07:37:35;0.98;;;0.60;;
61085;SDS011;46967;48.876;2.136;2022-08-23T07:40:02;4.05;;;1.00;;
61085;SDS011;46967;48.876;2.136;2022-08-23T07:42:28;2.25;;;1.00;;
61085;SDS011;46967;48.876;2.136;2022-08-23T07:44:53;3.08;;;1.05;;
61085;SDS011;46967;48.876;2.136;2022-08-23T07:47:19;3.22;;;1.05;;
61085;SDS011;46967;48.876;2.136;2022-08-23T07:49:45;2.80;;;0.90;;
61085;SDS011;46967;48.876;2.136;2022-08-23T07:52:11;1.35;;;0.70;;
61085;SDS011;46967;48.876;2.136;2022-08-23T07:54:36;2.40;;;0.90;;
61085;SDS011;46967;48.876;2.136;2022-08-23T07:57:01;3.03;;;1.00;;
61085;SDS011;46967;48.876;2.136;2022-08-23T07:59:27;4.72;;;1.00;;
61085;SDS011;46967;48.876;2.136;2022-08-23T08:01:53;2.28;;;0.75;;
61085;SDS011;46967;48.876;2.136;2022-08-23T08:04:18;1.20;;;0.90;;
61085;SDS011;46967;48.876;2.136;2022-08-23T08:06:45;1.33;;;0.90;;
61085;SDS011;46967;48.876;2.136;2022-08-23T08:09:13;3.25;;;0.82;;
61085;SDS011;46967;48.876;2.136;2022-08-23T08:11:40;3.72;;;0.73;;
61085;SDS011;46967;48.876;2.136;2022-08-23T08:14:08;3.60;;;0.97;;
61085;SDS011;46967;48.876;2.136;2022-08-23T08:16:39;1.48;;;0.80;;
61085;SDS011;46967;48.876;2.136;2022-08-23T08:19:09;3.30;;;1.05;;
61085;SDS011;46967;48.876;2.136;2022-08-23T08:21:37;2.65;;;0.80;;
61085;SDS011;46967;48.876;2.136;2022-08-23T08:24:04;6.63;;;0.90;;
61085;SDS011;46967;48.876;2.136;2022-08-23T08:26:31;1.42;;;0.85;;
61085;SDS011;46967;48.876;2.136;2022-08-23T08:28:57;2.30;;;0.80;;
61085;SDS011;46967;48.876;2.136;2022-08-23T08:31:23;1.17;;;0.90;;
61085;SDS011;46967;48.876;2.136;2022-08-23T08:33:49;2.25;;;0.90;;
61085;SDS011;46967;48.876;2.136;2022-08-23T08:36:27;4.18;;;1.05;;
61085;SDS011;46967;48.876;2.136;2022-08-23T08:38:59;2.95;;;1.08;;
61085;SDS011;46967;48.876;2.136;2022-08-23T08:47:14;5.45;;;0.95;;
61085;SDS011;46967;48.876;2.136;2022-08-23T08:52:40;1.17;;;1.00;;
61085;SDS011;46967;48.876;2.136;2022-08-23T08:55:19;2.70;;;1.00;;
61085;SDS011;46967;48.876;2.136;2022-08-23T08:57:48;2.25;;;0.95;;
61085;SDS011;46967;48.876;2.136;2022-08-23T09:00:19;2.75;;;1.00;;
61085;SDS011;46967;48.876;2.136;2022-08-23T09:02:50;3.13;;;0.98;;
61085;SDS011;46967;48.876;2.136;2022-08-23T09:05:26;1.65;;;0.90;;
61085;SDS011;46967;48.876;2.136;2022-08-23T09:08:20;3.35;;;1.17;;
61085;SDS011;46967;48.876;2.136;2022-08-23T09:13:58;2.78;;;1.00;;
61085;SDS011;46967;48.876;2.136;2022-08-23T09:16:53;2.25;;;0.90;;
61085;SDS011;46967;48.876;2.136;2022-08-23T09:19:23;2.22;;;1.20;;
61085;SDS011;46967;48.876;2.136;2022-08-23T09:24:22;4.03;;;1.23;;
61085;SDS011;46967;48.876;2.136;2022-08-23T09:26:48;9.85;;;1.42;;
61085;SDS011;46967;48.876;2.136;2022-08-23T09:29:21;1.75;;;0.90;;
61085;SDS011;46967;48.876;2.136;2022-08-23T09:31:50;2.60;;;1.10;;
61085;SDS011;46967;48.876;2.136;2022-08-23T09:36:56;4.03;;;0.88;;
61085;SDS011;46967;48.876;2.136;2022-08-23T09:39:36;3.17;;;1.00;;
61085;SDS011;46967;48.876;2.136;2022-08-23T09:42:07;2.45;;;1.02;;
61085;SDS011;46967;48.876;2.136;2022-08-23T09:44:38;2.45;;;1.05;;
61085;SDS011;46967;48.876;2.136;2022-08-23T09:49:32;3.20;;;0.90;;
61085;SDS011;46967;48.876;2.136;2022-08-23T09:51:59;2.60;;;0.90;;
61085;SDS011;46967;48.876;2.136;2022-08-23T09:54:35;2.28;;;0.88;;
61085;SDS011;46967;48.876;2.136;2022-08-23T09:57:03;5.57;;;1.13;;
61085;SDS011;46967;48.876;2.136;2022-08-23T09:59:36;1.60;;;1.00;;
61085;SDS011;46967;48.876;2.136;2022-08-23T10:02:12;2.60;;;0.85;;
61085;SDS011;46967;48.876;2.136;2022-08-23T10:04:54;4.72;;;0.80;;
61085;SDS011;46967;48.876;2.136;2022-08-23T10:07:22;4.03;;;0.87;;
61085;SDS011;46967;48.876;2.136;2022-08-23T10:09:50;1.15;;;0.50;;
61085;SDS011;46967;48.876;2.136;2022-08-23T10:12:16;0.52;;;0.50;;
61085;SDS011;46967;48.876;2.136;2022-08-23T10:14:42;1.30;;;0.57;;
61085;SDS011;46967;48.876;2.136;2022-08-23T10:17:20;1.25;;;0.70;;
61085;SDS011;46967;48.876;2.136;2022-08-23T10:23:09;0.60;;;0.60;;
61085;SDS011;46967;48.876;2.136;2022-08-23T10:25:54;2.05;;;0.70;;
61085;SDS011;46967;48.876;2.136;2022-08-23T10:28:41;0.55;;;0.50;;
61085;SDS011;46967;48.876;2.136;2022-08-23T10:31:36;1.50;;;0.80;;
61085;SDS011;46967;48.876;2.136;2022-08-23T10:45:07;1.48;;;0.50;;
61085;SDS011;46967;48.876;2.136;2022-08-23T10:47:58;0.43;;;0.43;;
61085;SDS011;46967;48.876;2.136;2022-08-23T10:50:25;5.97;;;2.03;;
61085;SDS011;46967;48.876;2.136;2022-08-23T10:55:51;1.55;;;0.70;;
61085;SDS011;46967;48.876;2.136;2022-08-23T10:58:28;3.05;;;0.63;;
61085;SDS011;46967;48.876;2.136;2022-08-23T11:01:05;1.88;;;0.57;;
61085;SDS011;46967;48.876;2.136;2022-08-23T11:03:43;2.83;;;0.85;;
61085;SDS011;46967;48.876;2.136;2022-08-23T11:11:37;0.40;;;0.40;;
61085;SDS011;46967;48.876;2.136;2022-08-23T11:14:04;1.00;;;0.40;;
61085;SDS011;46967;48.876;2.136;2022-08-23T11:18:58;0.55;;;0.52;;
61085;SDS011;46967;48.876;2.136;2022-08-23T11:28:48;0.80;;;0.60;;
61085;SDS011;46967;48.876;2.136;2022-08-23T11:42:23;1.92;;;0.35;;
61085;SDS011;46967;48.876;2.136;2022-08-23T11:45:23;0.50;;;0.40;;
61085;SDS011;46967;48.876;2.136;2022-08-23T11:53:21;1.48;;;0.40;;
61085;SDS011;46967;48.876;2.136;2022-08-23T12:05:27;0.77;;;0.50;;
61085;SDS011;46967;48.876;2.136;2022-08-23T12:18:37;1.00;;;0.35;;
61085;SDS011;46967;48.876;2.136;2022-08-23T12:21:10;1.70;;;0.40;;
61085;SDS011;46967;48.876;2.136;2022-08-23T12:23:44;1.38;;;0.73;;
61085;SDS011;46967;48.876;2.136;2022-08-23T12:28:47;0.80;;;0.28;;
61085;SDS011;46967;48.876;2.136;2022-08-23T12:36:52;2.28;;;0.40;;
61085;SDS011;46967;48.876;2.136;2022-08-23T12:39:30;0.47;;;0.40;;
61085;SDS011;46967;48.876;2.136;2022-08-23T12:42:04;0.65;;;0.40;;
61085;SDS011;46967;48.876;2.136;2022-08-23T12:44:40;5.22;;;0.57;;
61085;SDS011;46967;48.876;2.136;2022-08-23T12:47:13;1.67;;;0.50;;
61085;SDS011;46967;48.876;2.136;2022-08-23T12:49:52;0.60;;;0.40;;
61085;SDS011;46967;48.876;2.136;2022-08-23T12:52:32;0.50;;;0.30;;
61085;SDS011;46967;48.876;2.136;2022-08-23T12:54:58;0.40;;;0.40;;
61085;SDS011;46967;48.876;2.136;2022-08-23T12:57:28;1.00;;;0.30;;
61085;SDS011;46967;48.876;2.136;2022-08-23T13:02:39;1.85;;;0.30;;
61085;SDS011;46967;48.876;2.136;2022-08-23T13:05:12;0.90;;;0.30;;
61085;SDS011;46967;48.876;2.136;2022-08-23T13:07:46;0.40;;;0.20;;
61085;SDS011;46967;48.876;2.136;2022-08-23T13:10:12;2.15;;;0.30;;
61085;SDS011;46967;48.876;2.136;2022-08-23T13:12:37;0.50;;;0.40;;
61085;SDS011;46967;48.876;2.136;2022-08-23T13:15:04;0.25;;;0.25;;
61085;SDS011;46967;48.876;2.136;2022-08-23T13:17:31;0.45;;;0.30;;
61085;SDS011;46967;48.876;2.136;2022-08-23T13:22:31;1.83;;;0.40;;
61085;SDS011;46967;48.876;2.136;2022-08-23T13:25:11;1.90;;;0.20;;
61085;SDS011;46967;48.876;2.136;2022-08-23T13:27:50;1.33;;;0.30;;
61085;SDS011;46967;48.876;2.136;2022-08-23T13:30:20;3.10;;;0.35;;
61085;SDS011;46967;48.876;2.136;2022-08-23T13:32:52;2.58;;;0.38;;
61085;SDS011;46967;48.876;2.136;2022-08-23T13:35:38;1.58;;;0.35;;
61085;SDS011;46967;48.876;2.136;2022-08-23T13:40:44;0.93;;;0.30;;
61085;SDS011;46967;48.876;2.136;2022-08-23T13:46:11;1.80;;;0.23;;
61085;SDS011;46967;48.876;2.136;2022-08-23T13:48:45;2.47;;;0.40;;
61085;SDS011;46967;48.876;2.136;2022-08-23T13:51:18;0.20;;;0.20;;
61085;SDS011;46967;48.876;2.136;2022-08-23T13:54:00;2.17;;;0.30;;
61085;SDS011;46967;48.876;2.136;2022-08-23T13:56:29;0.55;;;0.30;;
61085;SDS011;46967;48.876;2.136;2022-08-23T13:58:59;3.08;;;0.40;;
61085;SDS011;46967;48.876;2.136;2022-08-23T14:01:26;3.33;;;0.30;;
61085;SDS011;46967;48.876;2.136;2022-08-23T14:03:52;0.20;;;0.20;;
61085;SDS011;46967;48.876;2.136;2022-08-23T14:06:18;0.35;;;0.13;;
61085;SDS011;46967;48.876;2.136;2022-08-23T14:08:43;0.20;;;0.20;;
61085;SDS011;46967;48.876;2.136;2022-08-23T14:11:09;0.20;;;0.15;;
61085;SDS011;46967;48.876;2.136;2022-08-23T14:13:36;0.20;;;0.20;;
61085;SDS011;46967;48.876;2.136;2022-08-23T14:16:04;0.22;;;0.20;;
61085;SDS011;46967;48.876;2.136;2022-08-23T14:18:31;0.50;;;0.22;;
61085;SDS011;46967;48.876;2.136;2022-08-23T14:20:57;0.63;;;0.28;;
61085;SDS011;46967;48.876;2.136;2022-08-23T14:23:23;0.28;;;0.22;;
61085;SDS011;46967;48.876;2.136;2022-08-23T14:25:50;0.38;;;0.20;;
61085;SDS011;46967;48.876;2.136;2022-08-23T14:28:17;3.83;;;0.20;;
61085;SDS011;46967;48.876;2.136;2022-08-23T14:30:43;0.65;;;0.30;;
61085;SDS011;46967;48.876;2.136;2022-08-23T14:33:08;0.20;;;0.20;;
61085;SDS011;46967;48.876;2.136;2022-08-23T14:35:34;2.08;;;0.45;;
61085;SDS011;46967;48.876;2.136;2022-08-23T14:37:59;1.55;;;0.10;;
61085;SDS011;46967;48.876;2.136;2022-08-23T14:40:26;2.55;;;0.30;;
61085;SDS011;46967;48.876;2.136;2022-08-23T14:42:52;0.10;;;0.10;;
61085;SDS011;46967;48.876;2.136;2022-08-23T14:45:18;0.50;;;0.17;;
61085;SDS011;46967;48.876;2.136;2022-08-23T14:47:43;0.25;;;0.20;;
61085;SDS011;46967;48.876;2.136;2022-08-23T14:50:09;0.40;;;0.22;;
61085;SDS011;46967;48.876;2.136;2022-08-23T14:52:38;0.95;;;0.10;;
61085;SDS011;46967;48.876;2.136;2022-08-23T14:55:06;1.45;;;0.20;;
61085;SDS011;46967;48.876;2.136;2022-08-23T14:57:33;0.22;;;0.22;;
61085;SDS011;46967;48.876;2.136;2022-08-23T14:59:58;0.22;;;0.20;;
61085;SDS011;46967;48.876;2.136;2022-08-23T15:02:24;0.38;;;0.38;;
61085;SDS011;46967;48.876;2.136;2022-08-23T15:04:51;0.55;;;0.28;;
61085;SDS011;46967;48.876;2.136;2022-08-23T15:07:17;0.50;;;0.30;;
61085;SDS011;46967;48.876;2.136;2022-08-23T15:09:43;0.20;;;0.20;;
61085;SDS011;46967;48.876;2.136;2022-08-23T15:12:09;0.22;;;0.20;;
61085;SDS011;46967;48.876;2.136;2022-08-23T15:14:35;2.83;;;0.38;;
61085;SDS011;46967;48.876;2.136;2022-08-23T15:17:00;3.30;;;0.35;;
61085;SDS011;46967;48.876;2.136;2022-08-23T15:19:27;0.95;;;0.22;;
61085;SDS011;46967;48.876;2.136;2022-08-23T15:21:53;0.30;;;0.30;;
61085;SDS011;46967;48.876;2.136;2022-08-23T15:24:18;0.50;;;0.30;;
61085;SDS011;46967;48.876;2.136;2022-08-23T15:26:44;0.45;;;0.20;;
61085;SDS011;46967;48.876;2.136;2022-08-23T15:29:09;2.08;;;0.28;;
61085;SDS011;46967;48.876;2.136;2022-08-23T15:31:35;0.60;;;0.30;;
61085;SDS011;46967;48.876;2.136;2022-08-23T15:34:00;0.60;;;0.20;;
61085;SDS011;46967;48.876;2.136;2022-08-23T15:36:25;0.35;;;0.20;;
61085;SDS011;46967;48.876;2.136;2022-08-23T15:38:52;0.38;;;0.38;;
61085;SDS011;46967;48.876;2.136;2022-08-23T15:41:18;0.40;;;0.20;;
61085;SDS011;46967;48.876;2.136;2022-08-23T15:43:44;0.20;;;0.20;;
61085;SDS011;46967;48.876;2.136;2022-08-23T15:46:11;0.47;;;0.22;;
61085;SDS011;46967;48.876;2.136;2022-08-23T15:48:41;0.40;;;0.30;;
61085;SDS011;46967;48.876;2.136;2022-08-23T15:51:19;0.93;;;0.20;;
61085;SDS011;46967;48.876;2.136;2022-08-23T15:53:45;0.25;;;0.25;;
61085;SDS011;46967;48.876;2.136;2022-08-23T15:56:15;0.75;;;0.20;;
61085;SDS011;46967;48.876;2.136;2022-08-23T15:58:44;0.22;;;0.22;;
61085;SDS011;46967;48.876;2.136;2022-08-23T16:01:10;0.47;;;0.20;;
61085;SDS011;46967;48.876;2.136;2022-08-23T16:03:37;0.10;;;0.10;;
61085;SDS011;46967;48.876;2.136;2022-08-23T16:06:06;2.70;;;0.20;;
61085;SDS011;46967;48.876;2.136;2022-08-23T16:08:34;3.47;;;0.30;;
61085;SDS011;46967;48.876;2.136;2022-08-23T16:11:02;0.70;;;0.20;;
61085;SDS011;46967;48.876;2.136;2022-08-23T16:13:34;0.40;;;0.20;;
61085;SDS011;46967;48.876;2.136;2022-08-23T16:16:04;0.20;;;0.20;;
61085;SDS011;46967;48.876;2.136;2022-08-23T16:18:31;0.20;;;0.17;;
61085;SDS011;46967;48.876;2.136;2022-08-23T16:20:56;0.63;;;0.20;;
61085;SDS011;46967;48.876;2.136;2022-08-23T16:23:21;0.30;;;0.20;;
61085;SDS011;46967;48.876;2.136;2022-08-23T16:25:47;0.60;;;0.20;;
61085;SDS011;46967;48.876;2.136;2022-08-23T16:28:12;0.10;;;0.10;;
61085;SDS011;46967;48.876;2.136;2022-08-23T16:30:38;0.98;;;0.32;;
61085;SDS011;46967;48.876;2.136;2022-08-23T16:33:03;0.77;;;0.20;;
61085;SDS011;46967;48.876;2.136;2022-08-23T16:35:28;5.82;;;0.20;;
61085;SDS011;46967;48.876;2.136;2022-08-23T16:37:54;0.30;;;0.28;;
61085;SDS011;46967;48.876;2.136;2022-08-23T16:40:19;0.32;;;0.20;;
61085;SDS011;46967;48.876;2.136;2022-08-23T16:42:45;0.88;;;0.63;;
61085;SDS011;46967;48.876;2.136;2022-08-23T16:45:11;2.60;;;0.20;;
61085;SDS011;46967;48.876;2.136;2022-08-23T16:47:38;0.13;;;0.13;;
61085;SDS011;46967;48.876;2.136;2022-08-23T16:50:08;0.57;;;0.30;;
61085;SDS011;46967;48.876;2.136;2022-08-23T16:52:34;0.30;;;0.22;;
61085;SDS011;46967;48.876;2.136;2022-08-23T16:55:00;0.32;;;0.22;;